createdAt,value
2022-10-11T00:02:01.485Z,18.77
2022-10-11T00:04:27.972Z,18.78
2022-10-11T00:06:54.824Z,18.67
2022-10-11T00:09:21.353Z,18.73
2022-10-11T00:11:47.844Z,18.74
2022-10-11T00:14:14.506Z,18.73
2022-10-11T00:16:44.322Z,18.71
2022-10-11T00:19:11.649Z,18.71
2022-10-11T00:21:38.218Z,18.70
2022-10-11T00:24:05.513Z,18.70
2022-10-11T00:26:32.477Z,18.66
2022-10-11T00:28:59.023Z,18.68
2022-10-11T00:31:25.587Z,18.68
2022-10-11T00:33:53.740Z,18.63
2022-10-11T00:36:21.224Z,18.65
2022-10-11T00:38:48.196Z,18.63
2022-10-11T00:41:15.999Z,18.57
2022-10-11T00:43:43.806Z,18.62
2022-10-11T00:46:16.045Z,18.61
2022-10-11T00:48:49.425Z,18.57
2022-10-11T00:51:43.044Z,18.58
2022-10-11T00:54:14.864Z,18.48
2022-10-11T00:56:43.571Z,18.51
2022-10-11T00:59:14.394Z,18.53
2022-10-11T01:01:41.028Z,18.51
2022-10-11T01:04:07.594Z,18.52
2022-10-11T01:06:34.682Z,18.52
2022-10-11T01:09:01.236Z,18.52
2022-10-11T01:11:30.256Z,18.51
2022-10-11T01:14:27.730Z,18.51
2022-10-11T01:17:16.243Z,18.49
2022-10-11T01:19:56.604Z,18.48
2022-10-11T01:22:41.489Z,18.47
2022-10-11T01:25:16.848Z,18.48
2022-10-11T01:28:12.103Z,18.46
2022-10-11T01:30:39.073Z,18.43
2022-10-11T01:33:14.915Z,18.45
2022-10-11T01:35:45.205Z,18.42
2022-10-11T01:38:22.404Z,18.39
2022-10-11T01:40:52.955Z,18.41
2022-10-11T01:43:20.678Z,18.41
2022-10-11T01:45:51.663Z,18.37
2022-10-11T01:48:18.713Z,18.40
2022-10-11T01:50:53.002Z,18.39
2022-10-11T01:53:40.056Z,18.39
2022-10-11T01:56:18.858Z,18.38
2022-10-11T01:59:16.282Z,18.36
2022-10-11T02:02:05.115Z,18.37
2022-10-11T02:05:00.879Z,18.36
2022-10-11T02:07:39.324Z,18.34
2022-10-11T02:10:21.171Z,18.34
2022-10-11T02:13:09.277Z,18.34
2022-10-11T02:15:40.730Z,18.32
2022-10-11T02:18:15.958Z,18.31
2022-10-11T02:20:45.352Z,18.21
2022-10-11T02:23:26.567Z,18.29
2022-10-11T02:25:54.434Z,18.23
2022-10-11T02:28:28.241Z,18.28
2022-10-11T02:30:56.588Z,18.29
2022-10-11T02:33:31.370Z,18.28
2022-10-11T02:36:05.695Z,18.28
2022-10-11T02:38:40.080Z,18.27
2022-10-11T02:41:32.890Z,18.26
2022-10-11T02:44:08.192Z,18.21
2022-10-11T02:46:35.623Z,18.25
2022-10-11T02:49:02.420Z,18.25
2022-10-11T02:51:32.598Z,18.24
2022-10-11T02:53:59.196Z,18.23
2022-10-11T02:56:25.931Z,18.23
2022-10-11T02:58:52.454Z,18.22
2022-10-11T03:01:19.017Z,18.21
2022-10-11T03:03:45.611Z,18.19
2022-10-11T03:06:12.293Z,18.20
2022-10-11T03:08:38.856Z,18.17
2022-10-11T03:11:05.411Z,18.16
2022-10-11T03:13:31.964Z,18.18
2022-10-11T03:16:03.273Z,18.18
2022-10-11T03:18:30.959Z,18.16
2022-10-11T03:20:57.649Z,18.16
2022-10-11T03:23:24.146Z,18.16
2022-10-11T03:25:52.024Z,18.13
2022-10-11T03:28:19.005Z,18.11
2022-10-11T03:30:48.458Z,18.13
2022-10-11T03:33:15.263Z,18.13
2022-10-11T03:35:44.760Z,18.13
2022-10-11T03:38:17.280Z,18.12
2022-10-11T03:40:44.246Z,18.11
2022-10-11T03:43:11.098Z,18.11
2022-10-11T03:45:38.056Z,18.08
2022-10-11T03:48:04.948Z,18.09
2022-10-11T03:50:31.449Z,18.09
2022-10-11T03:52:58.030Z,18.03
2022-10-11T03:55:24.672Z,18.07
2022-10-11T03:57:51.139Z,18.05
2022-10-11T04:00:17.765Z,18.06
2022-10-11T04:02:44.379Z,18.06
2022-10-11T04:05:12.589Z,17.98
2022-10-11T04:07:39.653Z,18.01
2022-10-11T04:10:07.122Z,18.04
2022-10-11T04:12:34.422Z,18.01
2022-10-11T04:15:00.978Z,18.02
2022-10-11T04:17:27.499Z,17.99
2022-10-11T04:19:53.976Z,18.00
2022-10-11T04:22:20.516Z,17.98
2022-10-11T04:24:47.042Z,18.00
2022-10-11T04:27:13.487Z,17.96
2022-10-11T04:29:39.972Z,17.96
2022-10-11T04:32:06.568Z,17.96
2022-10-11T04:34:33.112Z,17.93
2022-10-11T04:36:59.673Z,17.95
2022-10-11T04:39:26.221Z,17.97
2022-10-11T04:41:52.810Z,17.96
2022-10-11T04:44:19.335Z,17.95
2022-10-11T04:46:45.847Z,17.94
2022-10-11T04:49:12.357Z,17.91
2022-10-11T04:51:38.976Z,17.92
2022-10-11T04:54:05.592Z,17.90
2022-10-11T04:56:32.155Z,17.92
2022-10-11T04:59:00.931Z,17.91
2022-10-11T05:01:27.427Z,17.90
2022-10-11T05:03:53.949Z,17.91
2022-10-11T05:06:20.463Z,17.90
2022-10-11T05:08:47.038Z,17.89
2022-10-11T05:11:16.151Z,17.88
2022-10-11T05:13:43.590Z,17.90
2022-10-11T05:16:11.805Z,17.87
2022-10-11T05:18:39.529Z,17.87
2022-10-11T05:21:15.344Z,17.88
2022-10-11T05:23:41.775Z,17.89
2022-10-11T05:26:08.676Z,17.89
2022-10-11T05:28:35.991Z,17.93
2022-10-11T05:31:03.132Z,17.90
2022-10-11T05:33:29.666Z,17.95
2022-10-11T05:35:56.239Z,17.96
2022-10-11T05:38:23.015Z,17.96
2022-10-11T05:40:49.842Z,17.96
2022-10-11T05:43:16.354Z,17.98
2022-10-11T05:45:44.964Z,17.98
2022-10-11T05:48:11.672Z,17.95
2022-10-11T05:50:38.991Z,17.99
2022-10-11T05:53:06.426Z,18.02
2022-10-11T05:55:43.322Z,18.02
2022-10-11T05:58:15.167Z,18.01
2022-10-11T06:00:41.749Z,18.03
2022-10-11T06:03:10.979Z,17.98
2022-10-11T06:05:37.857Z,18.00
2022-10-11T06:08:06.083Z,18.04
2022-10-11T06:10:33.125Z,18.02
2022-10-11T06:12:59.807Z,18.06
2022-10-11T06:15:26.522Z,18.07
2022-10-11T06:17:53.343Z,18.07
2022-10-11T06:20:19.901Z,18.09
2022-10-11T06:22:46.419Z,18.10
2022-10-11T06:25:12.999Z,18.11
2022-10-11T06:27:39.490Z,18.11
2022-10-11T06:30:07.335Z,18.12
2022-10-11T06:32:33.944Z,18.13
2022-10-11T06:35:00.479Z,18.14
2022-10-11T06:37:26.985Z,18.14
2022-10-11T06:39:53.459Z,18.11
2022-10-11T06:42:19.927Z,18.16
2022-10-11T06:44:46.414Z,18.16
2022-10-11T06:47:13.457Z,18.19
2022-10-11T06:49:39.934Z,18.16
2022-10-11T06:52:06.418Z,18.14
2022-10-11T06:54:32.928Z,18.21
2022-10-11T06:56:59.427Z,18.21
2022-10-11T06:59:25.944Z,18.22
2022-10-11T07:01:52.414Z,18.22
2022-10-11T07:04:18.946Z,18.20
2022-10-11T07:06:45.515Z,18.21
2022-10-11T07:09:12.175Z,18.20
2022-10-11T07:11:38.844Z,18.19
2022-10-11T07:14:07.918Z,18.17
2022-10-11T07:16:36.461Z,18.16
2022-10-11T07:19:05.057Z,18.13
2022-10-11T07:21:33.845Z,18.16
2022-10-11T07:24:01.355Z,18.16
2022-10-11T07:26:38.691Z,18.16
2022-10-11T07:29:07.236Z,18.17
2022-10-11T07:31:33.752Z,18.16
2022-10-11T07:34:00.286Z,18.16
2022-10-11T07:36:26.901Z,18.12
2022-10-11T07:38:53.548Z,18.17
2022-10-11T07:41:20.859Z,18.20
2022-10-11T07:43:49.567Z,18.23
2022-10-11T07:46:17.289Z,18.28
2022-10-11T07:48:44.311Z,18.34
2022-10-11T07:51:13.687Z,18.39
2022-10-11T07:53:45.528Z,18.42
2022-10-11T07:56:14.500Z,18.55
2022-10-11T07:58:42.651Z,18.62
2022-10-11T08:01:10.871Z,18.72
2022-10-11T08:03:38.577Z,18.78
2022-10-11T08:06:09.463Z,18.85
2022-10-11T08:08:36.803Z,18.93
2022-10-11T08:11:04.271Z,18.97
2022-10-11T08:13:30.900Z,19.02
2022-10-11T08:15:57.851Z,19.10
2022-10-11T08:18:24.499Z,19.18
2022-10-11T08:20:53.578Z,19.26
2022-10-11T08:23:20.617Z,19.32
2022-10-11T08:25:48.569Z,19.36
2022-10-11T08:28:17.538Z,19.47
2022-10-11T08:30:51.256Z,19.54
2022-10-11T08:33:19.031Z,19.64
2022-10-11T08:35:45.785Z,19.64
2022-10-11T08:38:12.512Z,19.78
2022-10-11T08:40:46.277Z,19.84
2022-10-11T08:43:28.023Z,19.91
2022-10-11T08:45:57.938Z,19.92
2022-10-11T08:48:46.306Z,19.93
2022-10-11T08:51:25.277Z,19.94
2022-10-11T08:54:07.603Z,19.91
2022-10-11T08:56:38.766Z,19.91
2022-10-11T08:59:11.299Z,19.97
2022-10-11T09:01:46.562Z,20.04
2022-10-11T09:04:18.076Z,20.15
2022-10-11T09:06:55.433Z,20.23
2022-10-11T09:09:51.060Z,20.33
2022-10-11T09:12:54.477Z,20.40
2022-10-11T09:16:00.248Z,20.38
2022-10-11T09:18:35.483Z,20.35
2022-10-11T09:21:32.182Z,20.22
2022-10-11T09:24:04.785Z,20.11
2022-10-11T09:26:47.412Z,20.03
2022-10-11T09:29:21.470Z,19.91
2022-10-11T09:31:52.505Z,19.91
2022-10-11T09:34:21.352Z,19.85
2022-10-11T09:37:03.592Z,19.80
2022-10-11T09:39:33.371Z,19.79
2022-10-11T09:42:07.777Z,19.76
2022-10-11T09:44:37.442Z,19.71
2022-10-11T09:47:04.990Z,19.74
2022-10-11T09:49:40.847Z,19.73
2022-10-11T09:52:16.074Z,19.74
2022-10-11T09:54:57.995Z,19.71
2022-10-11T09:57:26.423Z,19.69
2022-10-11T10:00:06.395Z,19.70
2022-10-11T10:03:04.049Z,19.70
2022-10-11T10:05:32.877Z,19.71
2022-10-11T10:08:08.937Z,19.72
2022-10-11T10:10:38.739Z,19.71
2022-10-11T10:13:16.858Z,19.70
2022-10-11T10:15:47.053Z,19.73
2022-10-11T10:18:23.666Z,19.73
2022-10-11T10:20:59.468Z,19.76
2022-10-11T10:23:31.256Z,19.75
2022-10-11T10:26:27.481Z,19.77
2022-10-11T10:29:08.954Z,19.77
2022-10-11T10:32:12.419Z,19.78
2022-10-11T10:34:36.829Z,19.79
2022-10-11T10:37:15.623Z,19.81
2022-10-11T10:39:49.699Z,19.81
2022-10-11T10:42:20.082Z,19.82
2022-10-11T10:44:56.983Z,19.82
2022-10-11T10:47:41.685Z,19.83
2022-10-11T10:50:48.565Z,19.83
2022-10-11T10:53:42.091Z,19.82
2022-10-11T10:56:48.327Z,19.85
2022-10-11T10:59:21.214Z,19.85
2022-10-11T11:02:35.425Z,19.86
2022-10-11T11:05:18.087Z,19.86
2022-10-11T11:07:56.235Z,19.84
2022-10-11T11:10:35.074Z,19.87
2022-10-11T11:13:04.297Z,19.87
2022-10-11T11:15:52.651Z,19.88
2022-10-11T11:18:29.644Z,19.89
2022-10-11T11:21:27.535Z,19.88
2022-10-11T11:24:11.710Z,19.89
2022-10-11T11:26:46.858Z,19.90
2022-10-11T11:29:50.749Z,19.91
2022-10-11T11:32:46.034Z,19.93
2022-10-11T11:35:24.910Z,19.95
2022-10-11T11:38:01.316Z,19.95
2022-10-11T11:40:39.702Z,19.94
2022-10-11T11:43:23.130Z,19.96
2022-10-11T11:45:58.328Z,19.99
2022-10-11T11:48:26.729Z,19.97
2022-10-11T11:51:01.900Z,20.00
2022-10-11T11:53:40.936Z,20.05
2022-10-11T11:56:25.245Z,20.05
2022-10-11T11:59:03.079Z,20.08
2022-10-11T12:01:52.746Z,20.09
2022-10-11T12:04:28.127Z,20.10
2022-10-11T12:07:18.569Z,20.07
2022-10-11T12:09:52.820Z,20.11
2022-10-11T12:12:37.565Z,20.11
2022-10-11T12:15:21.153Z,20.11
2022-10-11T12:17:57.054Z,20.13
2022-10-11T12:20:49.503Z,20.14
2022-10-11T12:23:20.087Z,20.15
2022-10-11T12:26:15.379Z,20.15
2022-10-11T12:28:42.211Z,20.15
2022-10-11T12:31:30.853Z,20.12
2022-10-11T12:34:16.433Z,20.15
2022-10-11T12:36:47.133Z,20.15
2022-10-11T12:39:19.708Z,20.15
2022-10-11T12:41:49.823Z,20.14
2022-10-11T12:44:19.110Z,20.15
2022-10-11T12:46:53.564Z,20.15
2022-10-11T12:49:31.193Z,20.10
2022-10-11T12:52:01.784Z,20.11
2022-10-11T12:54:37.606Z,20.15
2022-10-11T12:57:46.161Z,20.14
2022-10-11T13:00:29.873Z,20.15
2022-10-11T13:03:27.173Z,20.15
2022-10-11T13:06:01.484Z,20.15
2022-10-11T13:08:32.199Z,20.15
2022-10-11T13:11:03.294Z,20.15
2022-10-11T13:13:41.503Z,20.18
2022-10-11T13:16:20.862Z,20.18
2022-10-11T13:18:49.893Z,20.15
2022-10-11T13:21:27.721Z,20.18
2022-10-11T13:23:57.791Z,20.20
2022-10-11T13:26:26.409Z,20.21
2022-10-11T13:28:53.001Z,20.21
2022-10-11T13:31:19.795Z,20.22
2022-10-11T13:33:46.612Z,20.16
2022-10-11T13:36:17.732Z,20.23
2022-10-11T13:38:53.730Z,20.20
2022-10-11T13:41:23.766Z,20.24
2022-10-11T13:43:50.403Z,20.22
2022-10-11T13:46:23.306Z,20.23
2022-10-11T13:49:05.150Z,20.25
2022-10-11T13:51:37.406Z,20.24
2022-10-11T13:54:13.635Z,20.24
2022-10-11T13:56:51.041Z,20.22
2022-10-11T13:59:23.665Z,20.24
2022-10-11T14:02:01.110Z,20.20
2022-10-11T14:04:29.967Z,20.25
2022-10-11T14:07:02.389Z,20.26
2022-10-11T14:09:39.074Z,20.27
2022-10-11T14:12:28.698Z,20.26
2022-10-11T14:14:55.204Z,20.26
2022-10-11T14:17:40.211Z,20.26
2022-10-11T14:20:13.230Z,20.28
2022-10-11T14:22:39.793Z,20.23
2022-10-11T14:25:06.756Z,20.27
2022-10-11T14:27:33.393Z,20.27
2022-10-11T14:30:24.154Z,20.28
2022-10-11T14:32:49.082Z,20.28
2022-10-11T14:35:24.533Z,20.26
2022-10-11T14:37:51.917Z,20.27
2022-10-11T14:40:24.307Z,20.29
2022-10-11T14:42:51.192Z,20.29
2022-10-11T14:45:18.978Z,20.28
2022-10-11T14:47:45.518Z,20.28
2022-10-11T14:50:42.658Z,20.28
2022-10-11T14:53:10.842Z,20.26
2022-10-11T14:55:39.808Z,20.25
2022-10-11T14:58:07.332Z,20.26
2022-10-11T15:00:35.623Z,20.27
2022-10-11T15:03:03.211Z,20.28
2022-10-11T15:05:33.992Z,20.29
2022-10-11T15:08:01.864Z,20.28
2022-10-11T15:10:31.358Z,20.25
2022-10-11T15:12:57.884Z,20.30
2022-10-11T15:15:28.190Z,20.28
2022-10-11T15:17:56.660Z,20.29
2022-10-11T15:20:36.946Z,20.29
2022-10-11T15:23:05.234Z,20.26
2022-10-11T15:25:32.226Z,20.28
2022-10-11T15:27:58.763Z,20.27
2022-10-11T15:30:29.267Z,20.28
2022-10-11T15:32:55.983Z,20.26
2022-10-11T15:35:23.563Z,20.28
2022-10-11T15:37:58.347Z,20.26
2022-10-11T15:40:32.244Z,20.29
2022-10-11T15:42:58.801Z,20.29
2022-10-11T15:45:26.402Z,20.28
2022-10-11T15:47:52.955Z,20.28
2022-10-11T15:50:37.274Z,20.29
2022-10-11T15:53:05.020Z,20.30
2022-10-11T15:55:32.953Z,20.28
2022-10-11T15:57:59.680Z,20.29
2022-10-11T16:00:27.153Z,20.28
2022-10-11T16:02:54.512Z,20.29
2022-10-11T16:05:23.403Z,20.28
2022-10-11T16:07:50.103Z,20.19
2022-10-11T16:10:16.786Z,20.29
2022-10-11T16:12:43.303Z,20.27
2022-10-11T16:15:11.260Z,20.26
2022-10-11T16:17:38.235Z,20.26
2022-10-11T16:20:06.768Z,20.27
2022-10-11T16:22:34.911Z,20.26
2022-10-11T16:25:02.648Z,20.27
2022-10-11T16:27:30.379Z,20.26
2022-10-11T16:29:57.302Z,20.28
2022-10-11T16:32:24.338Z,20.26
2022-10-11T16:34:51.116Z,20.26
2022-10-11T16:37:17.648Z,20.27
2022-10-11T16:39:44.216Z,20.27
2022-10-11T16:42:10.703Z,20.15
2022-10-11T16:44:38.860Z,20.26
2022-10-11T16:47:06.100Z,20.26
2022-10-11T16:49:32.926Z,20.24
2022-10-11T16:52:02.268Z,20.24
2022-10-11T16:54:30.446Z,20.24
2022-10-11T16:56:58.173Z,20.23
2022-10-11T16:59:24.799Z,20.14
2022-10-11T17:01:51.482Z,20.20
2022-10-11T17:04:18.095Z,20.23
2022-10-11T17:06:44.918Z,20.23
2022-10-11T17:09:11.871Z,20.21
2022-10-11T17:11:38.713Z,20.15
2022-10-11T17:14:06.135Z,20.20
2022-10-11T17:16:33.464Z,20.22
2022-10-11T17:19:00.165Z,20.21
2022-10-11T17:21:27.028Z,20.17
2022-10-11T17:23:53.696Z,20.20
2022-10-11T17:26:25.028Z,20.19
2022-10-11T17:28:55.772Z,20.18
2022-10-11T17:31:22.912Z,20.17
2022-10-11T17:33:50.156Z,20.16
2022-10-11T17:36:23.598Z,20.18
2022-10-11T17:38:51.347Z,20.16
2022-10-11T17:41:18.517Z,20.13
2022-10-11T17:43:45.065Z,20.14
2022-10-11T17:46:14.283Z,20.15
2022-10-11T17:48:40.909Z,20.13
2022-10-11T17:51:14.144Z,20.11
2022-10-11T17:53:41.426Z,20.13
2022-10-11T17:56:12.812Z,20.13
2022-10-11T17:58:39.762Z,20.13
2022-10-11T18:01:09.482Z,20.11
2022-10-11T18:03:36.507Z,20.11
2022-10-11T18:06:05.655Z,20.10
2022-10-11T18:08:40.041Z,20.09
2022-10-11T18:11:15.737Z,20.10
2022-10-11T18:13:46.053Z,20.08
2022-10-11T18:16:15.480Z,20.06
2022-10-11T18:18:42.603Z,20.06
2022-10-11T18:21:09.958Z,20.06
2022-10-11T18:23:38.229Z,20.05
2022-10-11T18:26:09.721Z,20.04
2022-10-11T18:28:36.522Z,20.01
2022-10-11T18:31:12.368Z,20.03
2022-10-11T18:33:39.707Z,20.02
2022-10-11T18:36:07.651Z,20.01
2022-10-11T18:38:34.838Z,20.01
2022-10-11T18:41:09.015Z,19.99
2022-10-11T18:43:35.864Z,19.97
2022-10-11T18:46:07.707Z,19.98
2022-10-11T18:48:34.891Z,19.97
2022-10-11T18:51:06.794Z,19.97
2022-10-11T18:53:34.732Z,19.93
2022-10-11T18:56:03.247Z,19.96
2022-10-11T18:58:31.360Z,19.94
2022-10-11T19:01:11.142Z,19.95
2022-10-11T19:03:38.136Z,19.91
2022-10-11T19:06:07.603Z,19.86
2022-10-11T19:08:35.044Z,19.91
2022-10-11T19:11:06.384Z,19.89
2022-10-11T19:13:33.850Z,19.90
2022-10-11T19:16:11.697Z,19.84
2022-10-11T19:18:43.189Z,19.88
2022-10-11T19:21:13.430Z,19.84
2022-10-11T19:23:45.013Z,19.87
2022-10-11T19:26:17.020Z,19.87
2022-10-11T19:28:44.544Z,19.86
2022-10-11T19:31:16.117Z,19.84
2022-10-11T19:33:45.278Z,19.83
2022-10-11T19:36:14.089Z,19.82
2022-10-11T19:38:44.092Z,19.83
2022-10-11T19:41:10.820Z,19.83
2022-10-11T19:43:37.312Z,19.81
2022-10-11T19:46:06.404Z,19.81
2022-10-11T19:48:35.593Z,19.81
2022-10-11T19:51:03.456Z,19.78
2022-10-11T19:53:29.966Z,19.79
2022-10-11T19:56:00.778Z,19.76
2022-10-11T19:58:27.369Z,19.67
2022-10-11T20:01:01.939Z,19.75
2022-10-11T20:03:29.588Z,19.76
2022-10-11T20:05:59.837Z,19.73
2022-10-11T20:08:27.425Z,19.75
2022-10-11T20:10:55.053Z,19.73
2022-10-11T20:13:21.662Z,19.73
2022-10-11T20:15:48.191Z,19.73
2022-10-11T20:18:14.731Z,19.73
2022-10-11T20:20:54.799Z,19.67
2022-10-11T20:23:26.640Z,19.72
2022-10-11T20:26:08.178Z,19.72
2022-10-11T20:28:36.533Z,19.68
2022-10-11T20:31:05.507Z,19.70
2022-10-11T20:33:32.801Z,19.71
2022-10-11T20:36:05.073Z,19.66
2022-10-11T20:38:33.616Z,19.69
2022-10-11T20:41:00.364Z,19.66
2022-10-11T20:43:26.872Z,19.68
2022-10-11T20:46:03.971Z,19.67
2022-10-11T20:48:31.794Z,19.66
2022-10-11T20:50:58.342Z,19.62
2022-10-11T20:53:25.640Z,19.66
2022-10-11T20:55:52.159Z,19.64
2022-10-11T20:58:19.193Z,19.64
2022-10-11T21:00:46.602Z,19.62
2022-10-11T21:03:16.330Z,19.63
2022-10-11T21:05:43.321Z,19.60
2022-10-11T21:08:10.121Z,19.62
2022-10-11T21:10:37.478Z,19.61
2022-10-11T21:13:04.394Z,19.59
2022-10-11T21:15:32.152Z,19.59
2022-10-11T21:17:58.635Z,19.58
2022-10-11T21:20:25.249Z,19.58
2022-10-11T21:22:51.891Z,19.58
2022-10-11T21:25:18.367Z,19.57
2022-10-11T21:27:44.905Z,19.54
2022-10-11T21:30:11.396Z,19.56
2022-10-11T21:32:38.111Z,19.55
2022-10-11T21:35:04.696Z,19.54
2022-10-11T21:37:31.366Z,19.50
2022-10-11T21:39:58.036Z,19.53
2022-10-11T21:42:29.293Z,19.51
2022-10-11T21:44:56.143Z,19.48
2022-10-11T21:47:22.591Z,19.46
2022-10-11T21:49:49.111Z,19.41
2022-10-11T21:52:15.657Z,19.42
2022-10-11T21:54:42.119Z,19.40
2022-10-11T21:57:08.618Z,19.38
2022-10-11T21:59:35.116Z,19.35
2022-10-11T22:02:02.230Z,19.33
2022-10-11T22:04:28.962Z,19.33
2022-10-11T22:06:55.683Z,19.29
2022-10-11T22:09:22.280Z,19.25
2022-10-11T22:11:48.770Z,19.28
2022-10-11T22:14:16.084Z,19.26
2022-10-11T22:16:42.632Z,19.23
2022-10-11T22:19:09.140Z,19.23
2022-10-11T22:21:35.943Z,19.18
2022-10-11T22:24:02.673Z,19.20
2022-10-11T22:26:31.081Z,19.18
2022-10-11T22:28:58.688Z,19.13
2022-10-11T22:31:25.160Z,19.16
2022-10-11T22:33:55.948Z,19.14
2022-10-11T22:36:24.301Z,19.13
2022-10-11T22:38:51.822Z,19.13
2022-10-11T22:41:18.426Z,19.11
2022-10-11T22:43:45.248Z,19.11
2022-10-11T22:46:11.865Z,19.10
2022-10-11T22:48:38.405Z,19.10
2022-10-11T22:51:05.090Z,19.04
2022-10-11T22:53:31.874Z,19.07
2022-10-11T22:55:58.646Z,19.03
2022-10-11T22:58:25.507Z,19.02
2022-10-11T23:00:52.027Z,19.03
2022-10-11T23:03:19.553Z,19.04
2022-10-11T23:05:57.017Z,19.01
2022-10-11T23:08:24.151Z,18.97
2022-10-11T23:10:50.633Z,19.00
2022-10-11T23:13:17.293Z,18.93
2022-10-11T23:15:44.117Z,18.96
2022-10-11T23:18:10.666Z,18.96
2022-10-11T23:20:40.044Z,18.97
2022-10-11T23:23:07.297Z,18.96
2022-10-11T23:25:33.987Z,18.94
2022-10-11T23:28:01.264Z,18.91
2022-10-11T23:30:28.714Z,18.89
2022-10-11T23:32:55.207Z,18.91
2022-10-11T23:35:21.698Z,18.89
2022-10-11T23:37:48.228Z,18.88
2022-10-11T23:40:15.271Z,18.82
2022-10-11T23:42:41.811Z,18.86
2022-10-11T23:45:09.071Z,18.85
2022-10-11T23:47:35.740Z,18.84
2022-10-11T23:50:02.304Z,18.83
2022-10-11T23:52:28.776Z,18.83
2022-10-11T23:54:56.173Z,18.82
2022-10-11T23:57:22.655Z,18.79
2022-10-11T23:59:49.133Z,18.79
